Time;durP1;ratioP1;P1;durP2;ratioP2;P2;SDS_P1;SDS_P2;PMS_P1;PMS_P2;Temp;Humidity;BMP_temperature;BMP_pressure;BME280_temperature;BME280_humidity;BME280_pressure;Samples;Min_cycle;Max_cycle;Signal;HPM_P1;HPM_P2
2023/03/27 00:00:52;;;;;;;;;;;27.10;99.90;;;;;;4947160;23;19922;-47
2023/03/27 00:03:19;;;;;;;;;;;27.10;99.90;;;;;;4937047;29;19907;-47
2023/03/27 00:05:44;;;;;;;;;;;27.00;99.90;;;;;;4936761;29;19911;-47
2023/03/27 00:08:10;;;;;;;;;;;27.00;99.90;;;;;;4936835;29;20393;-47
2023/03/27 00:10:37;;;;;;;;;;;27.00;99.90;;;;;;4936824;29;20005;-48
2023/03/27 00:13:03;;;;;;;;;;;27.00;99.90;;;;;;4936766;29;19922;-47
2023/03/27 00:15:29;;;;;;;;;;;27.00;99.90;;;;;;4936560;29;19906;-47
2023/03/27 00:17:57;;;;;;;;;;;27.00;99.90;;;;;;4936788;29;20290;-47
2023/03/27 00:20:24;;;;;;;;;;;27.00;99.90;;;;;;4936269;29;20358;-47
2023/03/27 00:22:55;;;;;;;;;;;27.00;99.90;;;;;;4936706;29;19918;-47
2023/03/27 00:25:25;;;;;;;;;;;27.00;99.90;;;;;;4936484;29;20363;-47
2023/03/27 00:27:52;;;;;;;;;;;27.00;99.90;;;;;;4967435;28;19907;-47
2023/03/27 00:30:19;;;;;;;;;;;27.00;99.90;;;;;;4936483;29;19962;-47
2023/03/27 00:32:45;;;;;;;;;;;27.00;99.90;;;;;;4936344;29;19906;-47
2023/03/27 00:35:12;;;;;;;;;;;27.00;99.90;;;;;;4936318;29;19906;-47
2023/03/27 00:37:38;;;;;;;;;;;27.00;99.90;;;;;;4936210;29;19906;-47
2023/03/27 00:40:06;;;;;;;;;;;27.00;99.90;;;;;;4936029;29;19977;-47
2023/03/27 00:42:32;;;;;;;;;;;26.90;99.90;;;;;;4931499;29;19911;-47
2023/03/27 00:44:58;;;;;;;;;;;26.90;99.90;;;;;;4927202;29;19907;-47
2023/03/27 00:47:32;;;;;;;;;;;26.90;99.90;;;;;;4950563;29;20009;-47
2023/03/27 00:50:00;;;;;;;;;;;26.90;99.90;;;;;;4934817;29;19906;-47
2023/03/27 00:52:28;;;;;;;;;;;26.90;99.90;;;;;;4935802;29;19956;-47
2023/03/27 00:54:55;;;;;;;;;;;26.90;99.90;;;;;;4935525;29;19911;-47
2023/03/27 00:57:22;;;;;;;;;;;26.90;99.90;;;;;;4933697;29;19914;-47
2023/03/27 00:59:50;;;;;;;;;;;26.90;99.90;;;;;;4946203;23;20379;-55
2023/03/27 01:02:17;;;;;;;;;;;26.90;99.90;;;;;;4935812;29;20361;-55
2023/03/27 01:04:43;;;;;;;;;;;26.90;99.90;;;;;;4935815;29;19914;-56
2023/03/27 01:07:10;;;;;;;;;;;26.90;99.90;;;;;;4935621;29;19914;-57
2023/03/27 01:09:36;;;;;;;;;;;26.90;99.90;;;;;;4935502;29;20037;-55
2023/03/27 01:12:14;;;;;;;;;;;26.80;99.90;;;;;;4935658;29;19907;-55
2023/03/27 01:14:46;;;;;;;;;;;26.80;99.90;;;;;;4935934;29;20351;-55
2023/03/27 01:17:17;;;;;;;;;;;26.80;99.90;;;;;;4935545;29;19906;-55
2023/03/27 01:20:03;;;;;;;;;;;26.80;99.90;;;;;;4935450;29;19946;-55
2023/03/27 01:22:44;;;;;;;;;;;26.80;99.90;;;;;;4935424;29;19969;-55
2023/03/27 01:25:10;;;;;;;;;;;26.80;99.90;;;;;;4935387;29;19949;-55
2023/03/27 01:27:57;;;;;;;;;;;26.80;99.90;;;;;;4935724;29;20425;-55
2023/03/27 01:30:30;;;;;;;;;;;26.80;99.90;;;;;;4935619;29;19997;-55
2023/03/27 01:32:55;;;;;;;;;;;26.80;99.90;;;;;;4935572;29;19918;-55
2023/03/27 01:35:27;;;;;;;;;;;26.70;99.90;;;;;;4935664;29;19914;-57
2023/03/27 01:38:10;;;;;;;;;;;26.80;99.90;;;;;;4935488;29;19915;-56
2023/03/27 01:40:54;;;;;;;;;;;26.70;99.90;;;;;;4935114;29;20338;-57
2023/03/27 01:43:32;;;;;;;;;;;26.70;99.90;;;;;;4935113;29;19911;-55
2023/03/27 01:46:10;;;;;;;;;;;26.70;99.90;;;;;;4935116;29;19907;-57
2023/03/27 01:48:36;;;;;;;;;;;26.70;99.90;;;;;;4935331;29;19930;-55
2023/03/27 01:51:05;;;;;;;;;;;26.70;99.90;;;;;;4935015;29;20342;-55
2023/03/27 01:53:41;;;;;;;;;;;26.70;99.90;;;;;;4935221;29;20011;-55
2023/03/27 01:56:12;;;;;;;;;;;26.70;99.90;;;;;;4935103;29;19913;-55
2023/03/27 01:58:45;;;;;;;;;;;26.70;99.90;;;;;;4935254;29;19928;-55
2023/03/27 02:01:15;;;;;;;;;;;26.60;99.90;;;;;;4930637;23;19931;-47
2023/03/27 02:03:42;;;;;;;;;;;26.60;99.90;;;;;;4916080;29;19907;-47
2023/03/27 02:06:12;;;;;;;;;;;26.60;99.90;;;;;;4916107;29;19942;-48
2023/03/27 02:08:48;;;;;;;;;;;26.60;99.90;;;;;;4919372;29;19957;-47
2023/03/27 02:11:14;;;;;;;;;;;26.60;99.90;;;;;;4918701;29;19958;-48
2023/03/27 02:13:42;;;;;;;;;;;26.60;99.90;;;;;;4919737;29;20308;-47
2023/03/27 02:16:10;;;;;;;;;;;26.60;99.90;;;;;;4919565;29;20267;-48
2023/03/27 02:18:38;;;;;;;;;;;26.60;99.90;;;;;;4919771;29;19910;-47
2023/03/27 02:21:05;;;;;;;;;;;26.60;99.90;;;;;;4918258;29;19943;-47
2023/03/27 02:23:30;;;;;;;;;;;26.60;99.90;;;;;;4919642;29;20349;-47
2023/03/27 02:25:56;;;;;;;;;;;26.60;99.90;;;;;;4919508;29;19961;-47
2023/03/27 02:28:25;;;;;;;;;;;26.50;99.90;;;;;;4919542;29;19907;-47
2023/03/27 02:30:51;;;;;;;;;;;26.50;99.90;;;;;;4919393;29;20001;-47
2023/03/27 02:33:26;;;;;;;;;;;26.60;99.90;;;;;;4919498;29;19907;-48
2023/03/27 02:36:10;;;;;;;;;;;26.50;99.90;;;;;;4919289;29;19907;-47
2023/03/27 02:38:40;;;;;;;;;;;26.50;99.90;;;;;;4919369;29;19932;-47
2023/03/27 02:41:15;;;;;;;;;;;26.50;99.90;;;;;;4919239;29;19918;-47
2023/03/27 02:43:51;;;;;;;;;;;26.50;99.90;;;;;;4919297;29;19914;-47
2023/03/27 02:46:19;;;;;;;;;;;26.50;99.90;;;;;;4919482;29;19929;-47
2023/03/27 02:48:47;;;;;;;;;;;26.50;99.90;;;;;;4919519;29;19961;-47
2023/03/27 02:51:16;;;;;;;;;;;26.50;99.90;;;;;;4919185;29;19915;-47
2023/03/27 02:53:44;;;;;;;;;;;26.50;99.90;;;;;;4919090;29;19907;-47
2023/03/27 02:56:10;;;;;;;;;;;26.50;99.90;;;;;;4918937;29;19907;-48
2023/03/27 02:58:43;;;;;;;;;;;26.50;99.90;;;;;;4919024;29;20382;-47
2023/03/27 03:01:12;;;;;;;;;;;26.40;99.90;;;;;;4930669;23;19929;-56
2023/03/27 03:03:41;;;;;;;;;;;26.40;99.90;;;;;;4918911;29;19911;-55
2023/03/27 03:06:09;;;;;;;;;;;26.40;99.90;;;;;;4919030;29;20414;-56
2023/03/27 03:08:39;;;;;;;;;;;26.40;99.90;;;;;;4933425;29;20367;-57
2023/03/27 03:11:09;;;;;;;;;;;26.40;99.90;;;;;;4918623;29;19907;-56
2023/03/27 03:13:35;;;;;;;;;;;26.40;99.90;;;;;;4949360;29;19975;-57
2023/03/27 03:16:01;;;;;;;;;;;26.40;99.90;;;;;;4913975;29;20371;-57
2023/03/27 03:18:26;;;;;;;;;;;26.40;99.90;;;;;;4908866;29;20385;-56
2023/03/27 03:20:55;;;;;;;;;;;26.40;99.90;;;;;;4932930;29;19915;-56
2023/03/27 03:23:21;;;;;;;;;;;26.40;99.90;;;;;;4918469;29;19911;-54
2023/03/27 03:25:49;;;;;;;;;;;26.40;99.90;;;;;;4918731;29;19954;-55
2023/03/27 03:28:17;;;;;;;;;;;26.30;99.90;;;;;;4918736;29;19957;-55
2023/03/27 03:30:45;;;;;;;;;;;26.30;99.90;;;;;;4918218;29;19914;-55
2023/03/27 03:33:13;;;;;;;;;;;26.30;99.90;;;;;;4918294;29;19907;-54
2023/03/27 03:35:38;;;;;;;;;;;26.30;99.90;;;;;;4918268;29;20042;-55
2023/03/27 03:38:05;;;;;;;;;;;26.30;99.90;;;;;;4918317;29;19997;-55
2023/03/27 03:40:31;;;;;;;;;;;26.30;99.90;;;;;;4918175;29;19919;-55
2023/03/27 03:42:56;;;;;;;;;;;26.30;99.90;;;;;;4918069;29;19914;-56
2023/03/27 03:45:22;;;;;;;;;;;26.30;99.90;;;;;;4918215;29;19907;-56
2023/03/27 03:47:48;;;;;;;;;;;26.30;99.90;;;;;;4918405;29;19998;-56
2023/03/27 03:50:14;;;;;;;;;;;26.30;99.90;;;;;;4918170;29;19915;-57
2023/03/27 03:52:40;;;;;;;;;;;26.20;99.90;;;;;;4917860;29;19907;-56
2023/03/27 03:55:06;;;;;;;;;;;26.20;99.90;;;;;;4913588;29;19908;-56
2023/03/27 03:57:32;;;;;;;;;;;26.20;99.90;;;;;;4913050;29;19914;-57
2023/03/27 03:59:58;;;;;;;;;;;26.20;99.90;;;;;;4918300;29;19919;-57
2023/03/27 04:02:29;;;;;;;;;;;26.20;99.90;;;;;;4918345;29;20488;-56
2023/03/27 04:04:56;;;;;;;;;;;26.20;99.90;;;;;;4917856;29;19958;-56
2023/03/27 04:07:22;;;;;;;;;;;26.20;99.90;;;;;;4917796;29;19915;-58
2023/03/27 04:09:49;;;;;;;;;;;26.20;99.90;;;;;;4917809;29;19986;-56
2023/03/27 04:12:15;;;;;;;;;;;26.10;99.90;;;;;;4917797;29;19955;-57
2023/03/27 04:14:41;;;;;;;;;;;26.10;99.90;;;;;;4917561;29;19965;-57
2023/03/27 04:17:06;;;;;;;;;;;26.10;99.90;;;;;;4917574;29;19954;-57
2023/03/27 04:19:32;;;;;;;;;;;26.10;99.90;;;;;;4917465;29;19934;-57
2023/03/27 04:22:01;;;;;;;;;;;26.10;99.90;;;;;;4917366;29;19950;-56
2023/03/27 04:24:29;;;;;;;;;;;26.10;99.90;;;;;;4917432;29;19978;-58
2023/03/27 04:26:57;;;;;;;;;;;26.10;99.90;;;;;;4917285;29;19970;-56
2023/03/27 04:29:23;;;;;;;;;;;26.10;99.90;;;;;;4916748;29;20373;-57
2023/03/27 04:31:49;;;;;;;;;;;26.10;99.90;;;;;;4917438;29;19907;-58
2023/03/27 04:34:19;;;;;;;;;;;26.10;99.90;;;;;;4917204;29;19914;-57
2023/03/27 04:36:45;;;;;;;;;;;26.10;99.90;;;;;;4917161;29;20038;-55
2023/03/27 04:39:10;;;;;;;;;;;26.00;99.90;;;;;;4916988;29;19954;-56
2023/03/27 04:41:37;;;;;;;;;;;26.00;99.90;;;;;;4917390;29;19915;-57
2023/03/27 04:44:04;;;;;;;;;;;26.10;99.90;;;;;;4917090;29;19907;-55
2023/03/27 04:46:29;;;;;;;;;;;26.00;99.90;;;;;;4917220;29;19907;-55
2023/03/27 04:48:55;;;;;;;;;;;26.00;99.90;;;;;;4916890;29;19911;-57
2023/03/27 04:51:21;;;;;;;;;;;26.00;99.90;;;;;;4917319;29;19962;-56
2023/03/27 04:53:46;;;;;;;;;;;26.00;99.90;;;;;;4916826;29;19914;-56
2023/03/27 04:56:12;;;;;;;;;;;26.00;99.90;;;;;;4931313;29;19911;-56
2023/03/27 04:58:39;;;;;;;;;;;26.00;99.90;;;;;;4916904;29;19914;-57
2023/03/27 05:01:05;;;;;;;;;;;26.00;99.90;;;;;;4916376;29;20332;-56
2023/03/27 05:03:31;;;;;;;;;;;26.00;99.90;;;;;;4931297;29;19969;-55
2023/03/27 05:05:58;;;;;;;;;;;26.00;99.90;;;;;;4916613;29;20375;-55
2023/03/27 05:08:23;;;;;;;;;;;26.00;99.90;;;;;;4917005;29;20007;-55
2023/03/27 05:10:49;;;;;;;;;;;26.00;99.90;;;;;;4916839;29;19907;-56
2023/03/27 05:13:15;;;;;;;;;;;25.90;99.90;;;;;;4916702;29;20364;-55
2023/03/27 05:15:40;;;;;;;;;;;25.90;99.90;;;;;;4916536;29;20357;-55
2023/03/27 05:18:07;;;;;;;;;;;25.90;99.90;;;;;;4916613;29;19907;-55
2023/03/27 05:20:33;;;;;;;;;;;25.90;99.90;;;;;;4916374;29;20327;-55
2023/03/27 05:22:59;;;;;;;;;;;26.00;99.90;;;;;;4916526;29;19907;-57
2023/03/27 05:25:24;;;;;;;;;;;25.90;99.90;;;;;;4916648;29;20292;-58
2023/03/27 05:27:50;;;;;;;;;;;25.90;99.90;;;;;;4916497;29;19911;-57
2023/03/27 05:30:17;;;;;;;;;;;25.90;99.90;;;;;;4916509;29;19963;-57
2023/03/27 05:32:47;;;;;;;;;;;25.90;99.90;;;;;;4916113;29;19907;-57
2023/03/27 05:35:17;;;;;;;;;;;25.90;99.90;;;;;;4916464;29;20005;-57
2023/03/27 05:37:50;;;;;;;;;;;25.80;99.90;;;;;;4930768;29;19930;-56
2023/03/27 05:40:20;;;;;;;;;;;25.90;99.90;;;;;;4916265;29;20002;-57
2023/03/27 05:42:46;;;;;;;;;;;25.90;99.90;;;;;;4915790;29;19922;-54
2023/03/27 05:45:12;;;;;;;;;;;25.90;99.90;;;;;;4911719;29;20287;-55
2023/03/27 05:47:42;;;;;;;;;;;25.80;99.90;;;;;;4914050;29;19914;-55
2023/03/27 05:50:08;;;;;;;;;;;25.80;99.90;;;;;;4916114;29;19993;-55
2023/03/27 05:52:34;;;;;;;;;;;25.80;99.90;;;;;;4916051;29;19918;-55
2023/03/27 05:55:00;;;;;;;;;;;25.80;99.90;;;;;;4916106;29;20298;-56
2023/03/27 05:57:25;;;;;;;;;;;25.80;99.90;;;;;;4916302;29;19914;-57
2023/03/27 05:59:51;;;;;;;;;;;25.80;99.90;;;;;;4916236;29;19915;-55
2023/03/27 06:02:17;;;;;;;;;;;25.80;99.90;;;;;;4915945;29;19958;-56
2023/03/27 06:04:43;;;;;;;;;;;25.80;99.90;;;;;;4916099;29;19958;-56
2023/03/27 06:07:11;;;;;;;;;;;25.80;99.90;;;;;;4915720;29;19911;-54
2023/03/27 06:09:37;;;;;;;;;;;25.80;99.90;;;;;;4916122;29;20253;-55
2023/03/27 06:12:04;;;;;;;;;;;25.80;99.90;;;;;;4916378;29;20271;-55
2023/03/27 06:14:30;;;;;;;;;;;25.80;99.90;;;;;;4915867;29;20380;-56
2023/03/27 06:16:56;;;;;;;;;;;25.80;99.90;;;;;;4916192;29;19911;-55
2023/03/27 06:19:23;;;;;;;;;;;25.80;99.90;;;;;;4915709;29;19914;-54
2023/03/27 06:21:49;;;;;;;;;;;25.80;99.90;;;;;;4915782;29;20359;-55
2023/03/27 06:24:15;;;;;;;;;;;25.70;99.90;;;;;;4915860;29;19915;-55
2023/03/27 06:26:41;;;;;;;;;;;25.80;99.90;;;;;;4915883;29;20387;-56
2023/03/27 06:29:07;;;;;;;;;;;25.70;99.90;;;;;;4915602;29;19907;-56
2023/03/27 06:31:32;;;;;;;;;;;25.80;99.90;;;;;;4915827;29;19914;-55
2023/03/27 06:33:58;;;;;;;;;;;25.80;99.90;;;;;;4915735;29;20328;-55
2023/03/27 06:36:23;;;;;;;;;;;25.70;99.90;;;;;;4930641;29;19907;-55
2023/03/27 06:38:49;;;;;;;;;;;25.70;99.90;;;;;;4915721;29;19907;-56
2023/03/27 06:41:15;;;;;;;;;;;25.70;99.90;;;;;;4915834;29;19915;-55
2023/03/27 06:43:40;;;;;;;;;;;25.70;99.90;;;;;;4915695;29;20002;-56
2023/03/27 06:46:06;;;;;;;;;;;25.70;99.90;;;;;;4915673;29;19908;-53
2023/03/27 06:48:31;;;;;;;;;;;25.70;99.90;;;;;;4930294;29;19911;-54
2023/03/27 06:50:57;;;;;;;;;;;25.70;99.90;;;;;;4916029;29;19914;-56
2023/03/27 06:53:23;;;;;;;;;;;25.70;99.90;;;;;;4916804;29;19974;-57
2023/03/27 06:55:49;;;;;;;;;;;25.70;99.90;;;;;;4918865;29;19994;-58
2023/03/27 06:58:17;;;;;;;;;;;25.70;99.90;;;;;;4919063;29;19957;-56
2023/03/27 07:00:44;;;;;;;;;;;25.70;99.90;;;;;;4918549;29;19926;-61
2023/03/27 07:03:10;;;;;;;;;;;25.70;99.90;;;;;;4918844;29;19907;-56
2023/03/27 07:05:37;;;;;;;;;;;25.70;99.90;;;;;;4918818;29;19907;-57
2023/03/27 07:08:05;;;;;;;;;;;25.70;99.90;;;;;;4949357;29;19914;-58
2023/03/27 07:10:30;;;;;;;;;;;25.70;99.90;;;;;;4918696;29;19911;-57
2023/03/27 07:12:56;;;;;;;;;;;25.70;99.90;;;;;;4918797;29;19907;-56
2023/03/27 07:15:22;;;;;;;;;;;25.70;99.90;;;;;;4918784;29;19907;-56
2023/03/27 07:17:58;;;;;;;;;;;25.70;99.90;;;;;;4918585;29;19954;-57
2023/03/27 07:20:26;;;;;;;;;;;25.70;99.90;;;;;;4918588;29;19931;-57
2023/03/27 07:22:53;;;;;;;;;;;25.70;99.90;;;;;;4918479;29;19911;-57
2023/03/27 07:25:19;;;;;;;;;;;25.70;99.90;;;;;;4918467;29;19954;-56
2023/03/27 07:27:45;;;;;;;;;;;25.70;99.90;;;;;;4918340;29;19907;-57
2023/03/27 07:30:12;;;;;;;;;;;25.70;99.90;;;;;;4918465;29;19918;-56
2023/03/27 07:32:41;;;;;;;;;;;25.70;99.90;;;;;;4918344;29;20011;-56
2023/03/27 07:35:08;;;;;;;;;;;25.70;99.90;;;;;;4918212;29;19907;-56
2023/03/27 07:37:36;;;;;;;;;;;25.80;99.90;;;;;;4918237;29;19913;-56
2023/03/27 07:40:05;;;;;;;;;;;25.70;99.90;;;;;;4918448;29;19911;-56
2023/03/27 07:42:32;;;;;;;;;;;25.80;99.90;;;;;;4918068;29;19919;-58
2023/03/27 07:44:58;;;;;;;;;;;25.80;99.90;;;;;;4918425;29;19914;-57
2023/03/27 07:47:24;;;;;;;;;;;25.80;99.90;;;;;;4917796;29;19907;-56
2023/03/27 07:49:49;;;;;;;;;;;25.80;99.90;;;;;;4918087;29;20027;-56
2023/03/27 07:52:15;;;;;;;;;;;25.80;99.90;;;;;;4918036;29;19954;-54
2023/03/27 07:54:41;;;;;;;;;;;25.80;99.90;;;;;;4917930;29;20260;-55
2023/03/27 07:57:09;;;;;;;;;;;25.80;99.90;;;;;;4918102;29;19914;-56
2023/03/27 07:59:34;;;;;;;;;;;25.80;99.90;;;;;;4917594;29;20271;-55
2023/03/27 08:02:00;;;;;;;;;;;25.80;99.90;;;;;;4918042;29;19915;-55
2023/03/27 08:04:26;;;;;;;;;;;25.80;99.90;;;;;;4948282;28;19978;-55
2023/03/27 08:06:53;;;;;;;;;;;25.80;99.90;;;;;;4917632;29;19949;-56
2023/03/27 08:09:19;;;;;;;;;;;25.80;99.90;;;;;;4917578;29;20439;-55
2023/03/27 08:11:45;;;;;;;;;;;25.80;99.90;;;;;;4917598;29;19954;-56
2023/03/27 08:14:11;;;;;;;;;;;25.80;99.90;;;;;;4917457;29;19915;-57
2023/03/27 08:16:36;;;;;;;;;;;25.90;99.90;;;;;;4917496;29;19914;-56
2023/03/27 08:19:03;;;;;;;;;;;25.90;99.90;;;;;;4913880;29;19954;-57
2023/03/27 08:21:30;;;;;;;;;;;25.90;99.90;;;;;;4917320;29;19915;-58
2023/03/27 08:23:57;;;;;;;;;;;25.80;99.90;;;;;;4917342;29;19907;-59
2023/03/27 08:26:23;;;;;;;;;;;25.90;99.90;;;;;;4917276;29;20414;-57
2023/03/27 08:28:52;;;;;;;;;;;25.90;99.90;;;;;;4917266;29;19965;-57
2023/03/27 08:31:18;;;;;;;;;;;25.90;99.90;;;;;;4917014;29;19914;-57
2023/03/27 08:33:44;;;;;;;;;;;25.90;99.90;;;;;;4917141;29;19907;-57
2023/03/27 08:36:10;;;;;;;;;;;25.90;99.90;;;;;;4917041;29;20363;-58
2023/03/27 08:38:38;;;;;;;;;;;25.90;99.90;;;;;;4917171;29;20340;-57
2023/03/27 08:41:04;;;;;;;;;;;25.90;99.90;;;;;;4917156;29;20262;-57
2023/03/27 08:43:35;;;;;;;;;;;25.90;99.90;;;;;;4917021;29;19972;-57
2023/03/27 08:46:06;;;;;;;;;;;25.90;99.90;;;;;;4917048;29;19915;-58
2023/03/27 08:48:49;;;;;;;;;;;25.90;99.90;;;;;;4917052;29;19914;-58
2023/03/27 08:51:36;;;;;;;;;;;25.90;99.90;;;;;;4917077;29;19974;-57
2023/03/27 08:54:07;;;;;;;;;;;25.90;99.90;;;;;;4917067;29;19915;-58
2023/03/27 08:56:33;;;;;;;;;;;25.90;99.90;;;;;;4917120;29;19907;-58
2023/03/27 08:59:00;;;;;;;;;;;25.90;99.90;;;;;;4916801;29;19914;-57
2023/03/27 09:01:39;;;;;;;;;;;25.90;99.90;;;;;;4916516;29;19923;-56
2023/03/27 09:04:16;;;;;;;;;;;26.00;99.90;;;;;;4946885;29;19942;-56
2023/03/27 09:06:44;;;;;;;;;;;26.00;99.90;;;;;;4916696;29;19955;-56
2023/03/27 09:09:15;;;;;;;;;;;26.00;99.90;;;;;;4904571;29;19908;-57
2023/03/27 09:11:51;;;;;;;;;;;26.00;99.90;;;;;;4916509;29;19911;-56
2023/03/27 09:14:30;;;;;;;;;;;26.00;99.90;;;;;;4916483;29;19915;-55
2023/03/27 09:16:59;;;;;;;;;;;26.00;99.90;;;;;;4915846;29;20360;-55
2023/03/27 09:19:30;;;;;;;;;;;26.00;99.90;;;;;;4916642;29;19907;-55
2023/03/27 09:22:02;;;;;;;;;;;26.00;99.90;;;;;;4916232;29;19950;-56
2023/03/27 09:24:33;;;;;;;;;;;26.00;99.90;;;;;;4916796;29;20256;-58
2023/03/27 09:27:10;;;;;;;;;;;26.00;99.90;;;;;;4916511;29;19907;-57
2023/03/27 09:29:38;;;;;;;;;;;26.00;99.90;;;;;;4917068;29;20006;-56
2023/03/27 09:32:10;;;;;;;;;;;26.10;99.90;;;;;;4916709;29;19954;-57
2023/03/27 09:34:36;;;;;;;;;;;26.10;99.90;;;;;;4916880;29;19949;-58
2023/03/27 09:37:03;;;;;;;;;;;26.00;99.90;;;;;;4916329;29;19942;-57
2023/03/27 09:39:31;;;;;;;;;;;26.10;99.90;;;;;;4916202;29;19911;-56
2023/03/27 09:41:57;;;;;;;;;;;26.10;99.90;;;;;;4916104;29;20013;-56
2023/03/27 09:44:33;;;;;;;;;;;26.10;99.90;;;;;;4916155;29;19967;-56
2023/03/27 09:47:02;;;;;;;;;;;26.10;99.90;;;;;;4916308;29;19911;-56
2023/03/27 09:49:27;;;;;;;;;;;26.10;99.90;;;;;;4916031;29;20046;-56
2023/03/27 09:51:54;;;;;;;;;;;26.10;99.90;;;;;;4930642;29;19950;-56
2023/03/27 09:54:20;;;;;;;;;;;26.10;99.90;;;;;;4915929;29;19918;-56
2023/03/27 09:56:50;;;;;;;;;;;26.20;99.90;;;;;;4916033;29;19907;-55
2023/03/27 09:59:25;;;;;;;;;;;26.20;99.90;;;;;;4915820;29;19907;-57
2023/03/27 10:01:54;;;;;;;;;;;26.20;99.90;;;;;;4930367;29;20033;-55
2023/03/27 10:04:21;;;;;;;;;;;26.20;99.90;;;;;;4915939;29;20407;-54
2023/03/27 10:07:01;;;;;;;;;;;26.20;99.90;;;;;;4915987;29;19930;-56
2023/03/27 10:09:28;;;;;;;;;;;26.20;99.90;;;;;;4915900;29;20018;-56
2023/03/27 10:12:06;;;;;;;;;;;26.20;99.90;;;;;;4930604;29;19907;-56
2023/03/27 10:14:38;;;;;;;;;;;26.30;99.90;;;;;;4915961;29;19955;-56
2023/03/27 10:17:04;;;;;;;;;;;26.20;99.90;;;;;;4930516;29;20388;-56
2023/03/27 10:19:32;;;;;;;;;;;26.30;99.90;;;;;;4915839;29;19989;-56
2023/03/27 10:22:21;;;;;;;;;;;26.30;99.90;;;;;;4915844;29;19948;-56
2023/03/27 10:24:47;;;;;;;;;;;26.30;99.90;;;;;;4916103;29;19914;-57
2023/03/27 10:27:32;;;;;;;;;;;26.30;99.90;;;;;;4915952;29;20274;-57
2023/03/27 10:29:57;;;;;;;;;;;26.30;99.90;;;;;;4909066;29;20383;-55
2023/03/27 10:32:43;;;;;;;;;;;26.30;99.90;;;;;;4919458;29;19907;-57
2023/03/27 10:35:42;;;;;;;;;;;26.40;99.90;;;;;;4919558;29;20372;-57
2023/03/27 10:38:12;;;;;;;;;;;26.40;99.90;;;;;;4918631;29;20375;-57
2023/03/27 10:40:39;;;;;;;;;;;26.40;99.90;;;;;;4919312;29;19914;-58
2023/03/27 10:43:26;;;;;;;;;;;26.40;99.90;;;;;;4919240;29;19914;-56
2023/03/27 10:45:57;;;;;;;;;;;26.40;99.90;;;;;;4919148;29;19943;-57
2023/03/27 10:48:37;;;;;;;;;;;26.40;99.90;;;;;;4919243;29;20355;-56
2023/03/27 10:51:05;;;;;;;;;;;26.50;99.90;;;;;;4919007;29;19907;-57
2023/03/27 10:53:42;;;;;;;;;;;26.50;99.90;;;;;;4919123;29;19911;-56
2023/03/27 10:56:31;;;;;;;;;;;26.50;99.90;;;;;;4919247;29;19962;-56
2023/03/27 10:58:58;;;;;;;;;;;26.50;99.90;;;;;;4919022;29;20324;-57
2023/03/27 11:01:30;;;;;;;;;;;26.50;99.90;;;;;;4933182;29;20379;-54
2023/03/27 11:04:02;;;;;;;;;;;26.50;99.90;;;;;;4918867;29;19962;-57
2023/03/27 11:06:31;;;;;;;;;;;26.50;99.90;;;;;;4918956;29;19907;-55
2023/03/27 11:09:05;;;;;;;;;;;26.50;99.90;;;;;;4949201;29;20419;-55
2023/03/27 11:11:35;;;;;;;;;;;26.60;99.90;;;;;;4914417;29;19911;-55
2023/03/27 11:14:04;;;;;;;;;;;26.50;99.90;;;;;;4912714;29;20013;-56
2023/03/27 11:16:52;;;;;;;;;;;26.60;99.90;;;;;;4918696;29;19915;-57
2023/03/27 11:19:41;;;;;;;;;;;26.60;99.90;;;;;;4918213;29;19914;-56
2023/03/27 11:22:12;;;;;;;;;;;26.60;99.90;;;;;;4918538;29;19915;-56
2023/03/27 11:24:49;;;;;;;;;;;26.60;99.90;;;;;;4918273;29;20356;-56
2023/03/27 11:27:19;;;;;;;;;;;26.60;99.90;;;;;;4918469;29;19962;-55
2023/03/27 11:29:45;;;;;;;;;;;26.60;99.90;;;;;;4905716;29;19994;-56
2023/03/27 11:32:32;;;;;;;;;;;26.60;99.90;;;;;;4918397;29;19997;-56
2023/03/27 11:35:01;;;;;;;;;;;26.60;99.90;;;;;;4921502;29;19907;-57
2023/03/27 11:37:30;;;;;;;;;;;26.60;99.90;;;;;;4918195;29;19907;-56
2023/03/27 11:40:12;;;;;;;;;;;26.60;99.90;;;;;;4917913;29;19907;-57
2023/03/27 11:42:41;;;;;;;;;;;26.60;99.90;;;;;;4918452;29;19923;-56
2023/03/27 11:45:11;;;;;;;;;;;26.60;99.90;;;;;;4918131;29;19907;-56
2023/03/27 11:47:42;;;;;;;;;;;26.60;99.90;;;;;;4918158;29;19910;-56
2023/03/27 11:50:27;;;;;;;;;;;26.60;99.90;;;;;;4932540;29;19942;-56
2023/03/27 11:52:56;;;;;;;;;;;26.60;99.90;;;;;;4917788;29;19909;-55
2023/03/27 11:55:32;;;;;;;;;;;26.60;99.90;;;;;;4932483;29;20401;-56
2023/03/27 11:58:07;;;;;;;;;;;26.60;99.90;;;;;;4948413;29;20389;-55
2023/03/27 12:00:35;;;;;;;;;;;26.70;99.90;;;;;;4917718;29;19915;-57
2023/03/27 12:03:00;;;;;;;;;;;26.70;99.90;;;;;;4917719;29;19958;-56
2023/03/27 12:05:32;;;;;;;;;;;26.70;99.90;;;;;;4917832;29;20006;-58
2023/03/27 12:08:17;;;;;;;;;;;26.70;99.90;;;;;;4917712;29;19911;-58
2023/03/27 12:10:45;;;;;;;;;;;26.60;99.90;;;;;;4917881;29;19907;-57
2023/03/27 12:13:15;;;;;;;;;;;26.70;99.90;;;;;;4918032;29;19918;-58
2023/03/27 12:16:07;;;;;;;;;;;26.70;99.90;;;;;;4917716;29;20001;-57
2023/03/27 12:18:32;;;;;;;;;;;26.70;99.90;;;;;;4942047;29;19907;-57
2023/03/27 12:21:01;;;;;;;;;;;26.70;99.90;;;;;;4917353;29;19915;-57
2023/03/27 12:23:43;;;;;;;;;;;26.70;99.90;;;;;;4917605;29;19911;-58
2023/03/27 12:26:08;;;;;;;;;;;26.70;99.90;;;;;;4917561;29;19974;-58
2023/03/27 12:28:53;;;;;;;;;;;26.70;99.90;;;;;;4917613;29;20394;-57
2023/03/27 12:31:38;;;;;;;;;;;26.70;99.90;;;;;;4917273;29;20394;-58
2023/03/27 12:34:21;;;;;;;;;;;26.70;99.90;;;;;;4917144;29;19914;-57
2023/03/27 12:36:48;;;;;;;;;;;26.70;99.90;;;;;;4917287;29;20356;-56
2023/03/27 12:39:17;;;;;;;;;;;26.70;99.90;;;;;;4917417;29;19907;-56
2023/03/27 12:41:44;;;;;;;;;;;26.70;99.90;;;;;;4917329;29;19949;-56
2023/03/27 12:44:11;;;;;;;;;;;26.70;99.90;;;;;;4916969;29;19907;-56
2023/03/27 12:46:38;;;;;;;;;;;26.70;99.90;;;;;;4917093;29;20316;-56
2023/03/27 12:49:06;;;;;;;;;;;26.70;99.90;;;;;;4917004;29;19907;-56
2023/03/27 12:51:36;;;;;;;;;;;26.80;99.90;;;;;;4916313;29;19903;-55
2023/03/27 12:54:12;;;;;;;;;;;26.80;99.90;;;;;;4917023;29;19907;-58
2023/03/27 12:56:37;;;;;;;;;;;26.80;99.90;;;;;;4916819;29;19907;-55
2023/03/27 12:59:17;;;;;;;;;;;26.80;99.90;;;;;;4916916;29;19907;-56
2023/03/27 13:01:42;;;;;;;;;;;26.80;99.90;;;;;;4912199;29;20006;-56
2023/03/27 13:04:14;;;;;;;;;;;26.90;99.90;;;;;;4911683;29;20010;-57
2023/03/27 13:06:45;;;;;;;;;;;26.90;99.90;;;;;;4916604;29;19907;-56
2023/03/27 13:09:27;;;;;;;;;;;26.90;99.90;;;;;;4916716;29;19915;-56
2023/03/27 13:12:11;;;;;;;;;;;26.90;99.90;;;;;;4916789;29;19907;-56
2023/03/27 13:14:39;;;;;;;;;;;26.90;99.90;;;;;;4931147;29;19998;-56
2023/03/27 13:17:23;;;;;;;;;;;26.90;99.90;;;;;;4916622;29;19911;-56
2023/03/27 13:20:08;;;;;;;;;;;26.90;99.90;;;;;;4916584;29;19914;-58
2023/03/27 13:22:34;;;;;;;;;;;26.90;99.90;;;;;;4916119;29;20006;-56
2023/03/27 13:25:06;;;;;;;;;;;27.00;99.90;;;;;;4916581;29;20002;-56
2023/03/27 13:27:52;;;;;;;;;;;27.00;99.90;;;;;;4916314;29;19978;-56
2023/03/27 13:30:37;;;;;;;;;;;27.00;99.90;;;;;;4916595;29;19907;-56
2023/03/27 13:33:16;;;;;;;;;;;27.00;99.90;;;;;;4916236;29;19930;-56
2023/03/27 13:35:57;;;;;;;;;;;27.00;99.90;;;;;;4916377;29;19907;-56
2023/03/27 13:38:41;;;;;;;;;;;27.00;99.90;;;;;;4906521;29;19942;-56
2023/03/27 13:41:25;;;;;;;;;;;27.00;99.90;;;;;;4916070;29;20363;-56
2023/03/27 13:43:52;;;;;;;;;;;27.00;99.90;;;;;;4916114;29;19935;-56
2023/03/27 13:46:23;;;;;;;;;;;27.00;99.90;;;;;;4916491;29;19907;-56
2023/03/27 13:48:57;;;;;;;;;;;27.00;99.90;;;;;;4916361;29;19914;-56
2023/03/27 13:51:41;;;;;;;;;;;27.00;99.90;;;;;;4916281;29;19907;-58
2023/03/27 13:54:11;;;;;;;;;;;27.00;99.90;;;;;;4916088;29;20006;-58
2023/03/27 13:56:40;;;;;;;;;;;27.00;99.90;;;;;;4916038;29;19907;-56
2023/03/27 13:59:05;;;;;;;;;;;27.00;99.90;;;;;;4916000;29;20007;-56
2023/03/27 14:01:32;;;;;;;;;;;27.00;99.90;;;;;;4915847;29;20005;-56
2023/03/27 14:04:20;;;;;;;;;;;27.00;99.90;;;;;;4919835;29;19907;-58
2023/03/27 14:07:01;;;;;;;;;;;27.00;99.90;;;;;;4919925;29;19914;-56
2023/03/27 14:09:46;;;;;;;;;;;27.00;99.90;;;;;;4919831;29;19907;-56
2023/03/27 14:12:11;;;;;;;;;;;27.00;99.90;;;;;;4919719;29;19918;-56
2023/03/27 14:14:40;;;;;;;;;;;27.00;99.90;;;;;;4920184;29;20268;-56
2023/03/27 14:17:24;;;;;;;;;;;27.00;99.90;;;;;;4919709;29;20329;-57
2023/03/27 14:19:49;;;;;;;;;;;27.10;99.90;;;;;;4920034;29;19914;-57
2023/03/27 14:22:19;;;;;;;;;;;27.00;99.90;;;;;;4919469;29;19915;-59
2023/03/27 14:24:46;;;;;;;;;;;27.10;99.90;;;;;;4919456;29;19962;-56
2023/03/27 14:27:15;;;;;;;;;;;27.10;99.90;;;;;;4919419;29;19955;-56
2023/03/27 14:29:41;;;;;;;;;;;27.10;99.90;;;;;;4919401;29;19926;-55
2023/03/27 14:32:12;;;;;;;;;;;27.10;99.90;;;;;;4919404;29;19964;-55